createdAt,value
2022-11-13T00:00:02.592Z,98787.63
2022-11-13T00:02:29.043Z,98778.63
2022-11-13T00:04:55.471Z,98797.63
2022-11-13T00:07:21.941Z,98800.97
2022-11-13T00:09:48.406Z,98774.75
2022-11-13T00:12:15.566Z,98792.59
2022-11-13T00:14:42.019Z,98795.28
2022-11-13T00:17:08.498Z,98788.25
2022-11-13T00:19:35.157Z,98791.91
2022-11-13T00:22:01.527Z,98791.13
2022-11-13T00:24:28.151Z,98776.75
2022-11-13T00:26:54.556Z,98783.88
2022-11-13T00:29:20.976Z,98776.56
2022-11-13T00:31:47.436Z,98782.50
2022-11-13T00:34:40.909Z,98776.03
2022-11-13T00:37:00.570Z,98775.19
2022-11-13T00:39:27.085Z,98778.59
2022-11-13T00:41:53.518Z,98766.38
2022-11-13T00:44:20.044Z,98766.81
2022-11-13T00:46:46.449Z,98757.34
2022-11-13T00:49:13.254Z,98755.97
2022-11-13T00:51:39.693Z,98762.22
2022-11-13T00:54:06.343Z,98765.94
2022-11-13T00:56:32.858Z,98760.72
2022-11-13T00:58:59.316Z,98761.84
2022-11-13T01:01:25.712Z,98744.00
2022-11-13T01:03:52.196Z,98751.38
2022-11-13T01:06:25.500Z,98742.56
2022-11-13T01:08:55.736Z,98754.84
2022-11-13T01:11:24.906Z,98763.22
2022-11-13T01:13:53.980Z,98745.84
2022-11-13T01:16:23.241Z,98770.53
2022-11-13T01:18:50.219Z,98768.78
2022-11-13T01:21:20.196Z,98770.56
2022-11-13T01:23:46.706Z,98770.44
2022-11-13T01:26:23.714Z,98770.50
2022-11-13T01:28:50.446Z,98768.19
2022-11-13T01:31:20.017Z,98758.84
2022-11-13T01:33:47.219Z,98764.56
2022-11-13T01:36:19.364Z,98764.13
2022-11-13T01:38:46.289Z,98748.25
2022-11-13T01:41:23.471Z,98771.75
2022-11-13T01:43:52.054Z,98752.56
2022-11-13T01:46:35.716Z,98768.78
2022-11-13T01:49:10.421Z,98749.84
2022-11-13T01:51:45.285Z,98736.44
2022-11-13T01:54:16.121Z,98763.75
2022-11-13T01:56:43.564Z,98760.66
2022-11-13T01:59:14.695Z,98740.81
2022-11-13T02:01:41.356Z,98764.19
2022-11-13T02:04:07.881Z,98742.13
2022-11-13T02:06:45.752Z,98763.72
2022-11-13T02:09:13.861Z,98759.47
2022-11-13T02:11:40.574Z,98752.00
2022-11-13T02:14:08.804Z,98749.75
2022-11-13T02:16:36.982Z,98681.53
2022-11-13T02:19:21.467Z,98744.34
2022-11-13T02:21:58.620Z,98744.25
2022-11-13T02:24:32.704Z,98738.53
2022-11-13T02:27:04.850Z,98732.03
2022-11-13T02:29:32.146Z,98716.72
2022-11-13T02:31:58.611Z,98732.03
2022-11-13T02:34:25.001Z,98706.69
2022-11-13T02:36:51.458Z,98698.09
2022-11-13T02:39:17.910Z,98711.72
2022-11-13T02:41:44.326Z,98686.97
2022-11-13T02:44:10.814Z,98695.16
2022-11-13T02:46:37.582Z,98690.50
2022-11-13T02:49:05.060Z,98695.63
2022-11-13T02:51:31.550Z,98696.63
2022-11-13T02:53:58.136Z,98676.53
2022-11-13T02:56:24.568Z,98692.00
2022-11-13T02:58:51.098Z,98677.81
2022-11-13T03:01:17.519Z,98662.34
2022-11-13T03:03:59.294Z,98679.47
2022-11-13T03:06:25.734Z,98682.84
2022-11-13T03:08:52.176Z,98669.44
2022-11-13T03:11:18.664Z,98684.31
2022-11-13T03:13:45.096Z,98681.91
2022-11-13T03:16:16.538Z,98685.63
2022-11-13T03:18:43.015Z,98663.28
2022-11-13T03:21:14.331Z,98680.66
2022-11-13T03:23:42.562Z,98681.50
2022-11-13T03:26:14.244Z,98677.41
2022-11-13T03:28:41.099Z,98682.59
2022-11-13T03:31:11.402Z,98669.91
2022-11-13T03:33:37.810Z,98680.66
2022-11-13T03:36:05.271Z,98697.25
2022-11-13T03:38:31.916Z,98677.31
2022-11-13T03:40:58.394Z,98682.50
2022-11-13T03:43:24.974Z,98682.69
2022-11-13T03:45:51.587Z,98695.75
2022-11-13T03:48:18.177Z,98693.41
2022-11-13T03:50:47.556Z,98673.59
2022-11-13T03:53:14.943Z,98690.72
2022-11-13T03:55:42.410Z,98682.34
2022-11-13T03:58:09.152Z,98671.16
2022-11-13T04:00:36.195Z,98677.22
2022-11-13T04:03:02.586Z,98668.03
2022-11-13T04:05:29.006Z,98660.63
2022-11-13T04:07:55.555Z,98676.19
2022-11-13T04:10:22.127Z,98681.78
2022-11-13T04:12:48.518Z,98661.03
2022-11-13T04:15:15.308Z,98684.81
2022-11-13T04:17:41.778Z,98674.47
2022-11-13T04:20:09.328Z,98668.06
2022-11-13T04:22:35.893Z,98664.22
2022-11-13T04:25:02.298Z,98672.13
2022-11-13T04:27:28.741Z,98670.94
2022-11-13T04:29:55.238Z,98647.91
2022-11-13T04:32:21.734Z,98647.53
2022-11-13T04:34:48.220Z,98633.78
2022-11-13T04:37:14.758Z,98638.63
2022-11-13T04:39:41.184Z,98633.09
2022-11-13T04:42:28.681Z,98654.84
2022-11-13T04:44:55.151Z,98638.16
2022-11-13T04:47:21.694Z,98636.50
2022-11-13T04:49:48.084Z,98656.66
2022-11-13T04:52:14.894Z,98667.22
2022-11-13T04:54:41.290Z,98672.38
2022-11-13T04:57:07.941Z,98671.78
2022-11-13T04:59:34.392Z,98671.97
2022-11-13T05:02:00.874Z,98668.28
2022-11-13T05:04:27.387Z,98659.34
2022-11-13T05:06:53.795Z,98648.31
2022-11-13T05:09:20.318Z,98663.25
2022-11-13T05:11:46.734Z,98652.53
2022-11-13T05:14:13.550Z,98654.53
2022-11-13T05:16:40.478Z,98651.13
2022-11-13T05:19:07.042Z,98644.63
2022-11-13T05:21:37.760Z,98647.78
2022-11-13T05:24:04.827Z,98658.78
2022-11-13T05:26:31.670Z,98654.16
2022-11-13T05:29:00.124Z,98658.63
2022-11-13T05:31:27.263Z,98647.78
2022-11-13T05:33:55.028Z,98649.66
2022-11-13T05:36:22.438Z,98664.09
2022-11-13T05:38:49.542Z,98652.09
2022-11-13T05:41:18.824Z,98650.66
2022-11-13T05:43:46.594Z,98643.59
2022-11-13T05:46:18.819Z,98637.72
2022-11-13T05:48:46.573Z,98649.81
2022-11-13T05:51:16.466Z,98648.13
2022-11-13T05:53:44.090Z,98646.13
2022-11-13T05:56:12.338Z,98648.25
2022-11-13T05:58:40.152Z,98649.41
2022-11-13T06:01:12.855Z,98641.78
2022-11-13T06:03:39.987Z,98628.34
2022-11-13T06:06:12.039Z,98627.50
2022-11-13T06:08:39.347Z,98632.22
2022-11-13T06:11:08.566Z,98611.69
2022-11-13T06:13:35.251Z,98619.63
2022-11-13T06:16:07.722Z,98621.06
2022-11-13T06:18:35.451Z,98628.19
2022-11-13T06:21:09.466Z,98616.78
2022-11-13T06:23:38.093Z,98623.50
2022-11-13T06:26:07.412Z,98628.34
2022-11-13T06:28:34.797Z,98598.00
2022-11-13T06:31:05.183Z,98612.72
2022-11-13T06:33:32.157Z,98600.13
2022-11-13T06:36:01.532Z,98595.63
2022-11-13T06:38:33.928Z,98584.66
2022-11-13T06:41:00.923Z,98586.50
2022-11-13T06:43:28.077Z,98601.75
2022-11-13T06:45:55.483Z,98589.22
2022-11-13T06:48:22.350Z,98591.66
2022-11-13T06:50:49.168Z,98589.03
2022-11-13T06:53:16.434Z,98605.00
2022-11-13T06:55:48.084Z,98571.97
2022-11-13T06:58:15.225Z,98610.38
2022-11-13T07:00:43.488Z,98574.31
2022-11-13T07:03:17.198Z,98608.81
2022-11-13T07:05:44.666Z,98609.97
2022-11-13T07:08:12.144Z,98605.34
2022-11-13T07:10:39.097Z,98593.56
2022-11-13T07:13:05.801Z,98599.44
2022-11-13T07:15:39.401Z,98595.75
2022-11-13T07:18:06.225Z,98596.69
2022-11-13T07:20:33.777Z,98593.63
2022-11-13T07:23:01.865Z,98581.19
2022-11-13T07:25:29.195Z,98584.41
2022-11-13T07:27:55.586Z,98588.44
2022-11-13T07:30:22.641Z,98584.50
2022-11-13T07:32:49.108Z,98591.88
2022-11-13T07:35:17.062Z,98586.00
2022-11-13T07:37:44.391Z,98562.81
2022-11-13T07:40:12.019Z,98579.47
2022-11-13T07:42:39.061Z,98586.38
2022-11-13T07:45:06.025Z,98590.47
2022-11-13T07:47:32.556Z,98598.31
2022-11-13T07:50:05.510Z,98574.19
2022-11-13T07:52:34.707Z,98583.16
2022-11-13T07:55:01.162Z,98571.69
2022-11-13T07:57:27.838Z,98546.22
2022-11-13T07:59:54.277Z,98562.00
2022-11-13T08:02:25.219Z,98523.75
2022-11-13T08:04:53.520Z,98537.13
2022-11-13T08:07:19.977Z,98533.91
2022-11-13T08:09:46.406Z,98523.41
2022-11-13T08:12:13.191Z,98503.94
2022-11-13T08:14:39.637Z,98474.91
2022-11-13T08:17:06.035Z,98476.28
2022-11-13T08:19:32.430Z,98478.91
2022-11-13T08:21:58.979Z,98455.03
2022-11-13T08:24:25.371Z,98398.66
2022-11-13T08:26:52.286Z,98426.56
2022-11-13T08:29:18.873Z,98463.81
2022-11-13T08:31:45.295Z,98510.44
2022-11-13T08:34:12.057Z,98521.06
2022-11-13T08:36:38.488Z,98575.91
2022-11-13T08:39:04.938Z,98622.69
2022-11-13T08:41:31.304Z,98592.16
2022-11-13T08:43:57.901Z,98653.75
2022-11-13T08:46:24.289Z,98703.19
2022-11-13T08:48:50.719Z,98700.50
2022-11-13T08:51:18.305Z,98660.19
2022-11-13T08:53:44.720Z,98656.53
2022-11-13T08:56:11.764Z,98704.97
2022-11-13T08:58:38.343Z,98732.81
2022-11-13T09:01:04.950Z,98794.41
2022-11-13T09:03:31.555Z,98866.97
2022-11-13T09:05:58.080Z,98925.91
2022-11-13T09:08:24.529Z,99091.31
2022-11-13T09:10:50.960Z,99184.00
2022-11-13T09:13:17.410Z,99277.22
2022-11-13T09:15:43.864Z,99336.03
2022-11-13T09:18:10.710Z,99369.09
2022-11-13T09:20:37.192Z,99410.47
2022-11-13T09:23:06.435Z,99409.38
2022-11-13T09:25:37.851Z,99362.19
2022-11-13T09:28:06.103Z,99411.78
2022-11-13T09:30:32.927Z,99430.03
2022-11-13T09:33:00.949Z,99434.13
2022-11-13T09:35:34.729Z,99459.47
2022-11-13T09:38:10.442Z,99474.41
2022-11-13T09:40:43.971Z,99486.31
2022-11-13T09:43:36.634Z,99462.00
2022-11-13T09:46:11.311Z,99481.28
2022-11-13T09:48:43.206Z,99464.25
2022-11-13T09:51:15.056Z,99445.34
2022-11-13T09:53:41.729Z,99411.13
2022-11-13T09:56:24.620Z,99402.78
2022-11-13T09:59:16.690Z,99370.09
2022-11-13T10:01:51.784Z,99295.47
2022-11-13T10:04:26.411Z,99295.09
2022-11-13T10:07:12.563Z,99313.22
2022-11-13T10:09:58.172Z,99416.56
2022-11-13T10:12:28.607Z,99395.38
2022-11-13T10:14:57.051Z,99361.78
2022-11-13T10:17:32.441Z,99417.91
2022-11-13T10:20:02.796Z,99430.16
2022-11-13T10:22:39.363Z,99390.19
2022-11-13T10:25:18.283Z,99348.50
2022-11-13T10:27:50.499Z,99282.50
2022-11-13T10:30:18.918Z,99333.28
2022-11-13T10:32:46.373Z,99300.00
2022-11-13T10:35:12.700Z,99283.34
2022-11-13T10:37:42.078Z,99331.34
2022-11-13T10:40:08.768Z,99230.03
2022-11-13T10:42:41.099Z,99200.50
2022-11-13T10:45:16.769Z,99213.28
2022-11-13T10:48:05.070Z,99177.44
2022-11-13T10:50:32.875Z,99262.25
2022-11-13T10:52:59.646Z,99267.78
2022-11-13T10:55:35.705Z,99284.34
2022-11-13T10:58:10.928Z,99341.09
2022-11-13T11:00:40.508Z,99220.59
2022-11-13T11:03:33.490Z,99306.66
2022-11-13T11:06:04.777Z,99343.13
2022-11-13T11:08:33.904Z,99344.19
2022-11-13T11:11:31.883Z,99273.38
2022-11-13T11:14:34.037Z,99284.78
2022-11-13T11:17:01.782Z,99203.56
2022-11-13T11:19:30.824Z,99191.34
2022-11-13T11:22:27.723Z,99202.81
2022-11-13T11:25:13.055Z,99246.53
2022-11-13T11:28:00.873Z,99268.88
2022-11-13T11:30:33.066Z,99194.72
2022-11-13T11:33:16.175Z,99206.97
2022-11-13T11:35:48.324Z,99242.69
2022-11-13T11:38:32.602Z,99273.25
2022-11-13T11:41:16.189Z,99218.69
2022-11-13T11:43:51.672Z,99227.63
2022-11-13T11:46:23.990Z,99178.22
2022-11-13T11:48:51.196Z,99180.78
2022-11-13T11:51:31.295Z,99232.22
2022-11-13T11:54:06.446Z,99159.31
2022-11-13T11:56:44.460Z,99199.94
2022-11-13T11:59:19.990Z,99195.03
2022-11-13T12:01:56.144Z,99181.56
2022-11-13T12:04:50.217Z,99145.72
2022-11-13T12:07:48.723Z,99103.91
2022-11-13T12:10:36.438Z,99093.59
2022-11-13T12:13:18.526Z,99103.97
2022-11-13T12:16:11.032Z,99070.44
2022-11-13T12:18:45.788Z,99061.00
2022-11-13T12:21:22.420Z,99091.03
2022-11-13T12:24:06.448Z,99034.09
2022-11-13T12:26:57.009Z,99096.34
2022-11-13T12:29:35.828Z,99057.63
2022-11-13T12:32:14.777Z,99045.16
2022-11-13T12:34:45.824Z,99061.41
2022-11-13T12:37:26.839Z,99019.44
2022-11-13T12:40:00.719Z,99005.13
2022-11-13T12:42:41.901Z,98997.25
2022-11-13T12:45:19.693Z,98949.53
2022-11-13T12:47:49.603Z,98904.41
2022-11-13T12:50:42.371Z,98923.88
2022-11-13T12:53:11.141Z,98953.56
2022-11-13T12:55:40.925Z,99041.66
2022-11-13T12:58:27.140Z,99043.03
2022-11-13T13:01:02.546Z,99068.88
2022-11-13T13:03:41.239Z,99039.91
2022-11-13T13:06:35.190Z,99023.22
2022-11-13T13:09:22.838Z,99046.69
2022-11-13T13:12:01.475Z,99101.84
2022-11-13T13:14:59.400Z,99083.50
2022-11-13T13:17:26.041Z,99047.41
2022-11-13T13:20:10.883Z,98960.25
2022-11-13T13:22:37.322Z,98905.00
2022-11-13T13:25:11.864Z,98862.72
2022-11-13T13:27:42.216Z,98782.72
2022-11-13T13:30:25.223Z,98736.97
2022-11-13T13:33:25.568Z,98745.34
2022-11-13T13:36:02.905Z,98653.06
2022-11-13T13:38:38.042Z,98551.88
2022-11-13T13:41:10.279Z,98411.88
2022-11-13T13:44:06.454Z,98310.69
2022-11-13T13:46:34.862Z,98275.19
2022-11-13T13:49:14.562Z,98240.25
2022-11-13T13:51:44.394Z,98219.06
2022-11-13T13:54:30.509Z,98207.88
2022-11-13T13:56:57.974Z,98156.94
2022-11-13T13:59:33.224Z,98083.13
2022-11-13T14:02:05.055Z,98044.72
2022-11-13T14:04:46.856Z,97971.47
2022-11-13T14:07:30.400Z,97957.66
2022-11-13T14:10:17.111Z,97960.00
2022-11-13T14:12:45.333Z,97957.66
2022-11-13T14:15:33.041Z,97931.06
2022-11-13T14:18:16.966Z,97953.56
2022-11-13T14:20:55.878Z,97965.94
2022-11-13T14:23:27.944Z,97985.97
2022-11-13T14:25:56.564Z,98039.59
2022-11-13T14:28:29.035Z,98036.50
2022-11-13T14:31:00.841Z,98066.03
2022-11-13T14:33:42.438Z,98089.56
2022-11-13T14:36:09.278Z,98103.56
2022-11-13T14:38:40.671Z,98089.59
2022-11-13T14:41:07.380Z,98095.22
2022-11-13T14:43:34.048Z,98109.63
2022-11-13T14:46:06.604Z,98132.50
2022-11-13T14:48:34.680Z,98189.63
2022-11-13T14:51:04.897Z,98184.44
2022-11-13T14:53:32.942Z,98195.50
2022-11-13T14:56:04.695Z,98175.47
2022-11-13T14:58:36.555Z,98184.72
2022-11-13T15:01:21.147Z,98158.34
2022-11-13T15:03:49.293Z,98161.22
2022-11-13T15:06:20.520Z,98154.13
2022-11-13T15:08:48.224Z,98164.06
2022-11-13T15:11:16.542Z,98136.50
2022-11-13T15:13:43.804Z,98124.84
2022-11-13T15:16:28.456Z,98119.66
2022-11-13T15:19:03.493Z,98102.56
2022-11-13T15:21:30.775Z,98083.06
2022-11-13T15:23:58.103Z,98085.03
2022-11-13T15:26:24.574Z,98059.34
2022-11-13T15:28:51.014Z,98044.94
2022-11-13T15:31:23.996Z,98022.25
2022-11-13T15:33:51.937Z,98006.19
2022-11-13T15:36:18.347Z,97954.94
2022-11-13T15:38:44.855Z,97966.56
2022-11-13T15:41:14.419Z,97968.28
2022-11-13T15:43:44.285Z,97942.00
2022-11-13T15:46:14.743Z,97910.53
2022-11-13T15:48:41.334Z,97889.38
2022-11-13T15:51:19.536Z,97869.94
2022-11-13T15:53:50.909Z,97842.59
2022-11-13T15:56:18.283Z,97817.06
2022-11-13T15:58:44.692Z,97774.63
2022-11-13T16:01:14.766Z,97744.66
2022-11-13T16:03:41.416Z,97729.97
2022-11-13T16:06:12.026Z,97721.13
2022-11-13T16:08:38.455Z,97700.78
2022-11-13T16:11:05.102Z,97690.31
2022-11-13T16:13:31.749Z,97699.38
2022-11-13T16:16:00.333Z,97657.63
2022-11-13T16:18:29.719Z,97653.22
2022-11-13T16:20:56.120Z,97625.25
2022-11-13T16:23:22.536Z,97622.16
2022-11-13T16:25:49.972Z,97620.97
2022-11-13T16:28:19.806Z,97598.53
2022-11-13T16:30:47.204Z,97581.31
2022-11-13T16:33:13.766Z,97548.78
2022-11-13T16:35:40.190Z,97548.78
2022-11-13T16:38:13.329Z,97538.09
2022-11-13T16:40:42.882Z,97517.34
2022-11-13T16:43:10.315Z,97511.94
2022-11-13T16:45:38.433Z,97475.56
2022-11-13T16:48:06.186Z,97485.53
2022-11-13T16:50:34.735Z,97464.41
2022-11-13T16:53:01.234Z,97455.88
2022-11-13T16:55:27.692Z,97445.41
2022-11-13T16:57:54.132Z,97440.44
2022-11-13T17:00:20.811Z,97428.06
2022-11-13T17:02:50.635Z,97405.78
2022-11-13T17:05:17.611Z,97387.50
2022-11-13T17:07:43.998Z,97380.34
2022-11-13T17:10:34.757Z,97394.94
2022-11-13T17:13:01.302Z,97387.50
2022-11-13T17:15:28.067Z,97368.16
2022-11-13T17:17:57.650Z,97372.97
2022-11-13T17:20:24.551Z,97361.50
2022-11-13T17:22:50.961Z,97367.03
2022-11-13T17:25:18.520Z,97364.00
2022-11-13T17:27:44.992Z,97354.13
2022-11-13T17:30:12.956Z,97356.28
2022-11-13T17:32:39.554Z,97376.00
2022-11-13T17:35:06.573Z,97364.97
2022-11-13T17:37:33.870Z,97359.47
2022-11-13T17:40:00.355Z,97375.31
2022-11-13T17:42:28.545Z,97382.44
2022-11-13T17:44:55.048Z,97414.94
2022-11-13T17:47:21.599Z,97420.13
2022-11-13T17:49:48.001Z,97436.78
2022-11-13T17:52:14.466Z,97447.53
2022-11-13T17:54:40.864Z,97423.69
2022-11-13T17:57:10.227Z,97437.78
2022-11-13T17:59:36.858Z,97466.41
2022-11-13T18:02:03.391Z,97463.94
2022-11-13T18:04:29.886Z,97482.84
2022-11-13T18:06:56.377Z,97490.97
2022-11-13T18:09:22.792Z,97457.44
2022-11-13T18:11:49.222Z,97506.72
2022-11-13T18:14:15.647Z,97503.66
2022-11-13T18:16:42.051Z,97512.69
2022-11-13T18:19:09.265Z,97533.13
2022-11-13T18:21:36.427Z,97525.38
2022-11-13T18:24:11.947Z,97541.81
2022-11-13T18:26:39.015Z,97541.81
2022-11-13T18:29:05.412Z,97551.38
2022-11-13T18:31:32.229Z,97540.50
2022-11-13T18:34:04.016Z,97546.03
2022-11-13T18:36:34.807Z,97537.13
2022-11-13T18:39:03.420Z,97546.28
2022-11-13T18:41:30.487Z,97553.22
2022-11-13T18:43:56.916Z,97550.25
2022-11-13T18:46:23.580Z,97555.09
2022-11-13T18:48:50.232Z,97543.66
2022-11-13T18:51:23.212Z,97541.59
2022-11-13T18:53:51.345Z,97573.50
2022-11-13T18:56:22.991Z,97549.53
2022-11-13T18:58:50.899Z,97548.50
2022-11-13T19:01:24.651Z,97555.13
2022-11-13T19:04:20.869Z,97523.69
2022-11-13T19:06:40.791Z,97470.84
2022-11-13T19:09:11.794Z,97528.19
2022-11-13T19:11:38.957Z,97522.72
2022-11-13T19:14:05.754Z,97495.09
2022-11-13T19:16:35.356Z,97500.22
2022-11-13T19:19:05.149Z,97474.06
2022-11-13T19:21:33.634Z,97467.28
2022-11-13T19:24:01.347Z,97436.41
2022-11-13T19:26:28.684Z,97413.84
2022-11-13T19:28:56.287Z,97421.63
2022-11-13T19:31:27.553Z,97414.75
2022-11-13T19:33:59.552Z,97396.28
2022-11-13T19:36:28.577Z,97408.88
2022-11-13T19:38:55.910Z,97397.44
2022-11-13T19:41:23.869Z,97397.38
2022-11-13T19:43:51.494Z,97353.41
2022-11-13T19:46:19.885Z,97365.16
2022-11-13T19:48:51.275Z,97350.66
2022-11-13T19:51:23.570Z,97374.47
2022-11-13T19:53:59.099Z,97367.22
2022-11-13T19:56:28.289Z,97353.78
2022-11-13T19:58:56.137Z,97361.41
2022-11-13T20:01:25.368Z,97365.53
2022-11-13T20:04:00.116Z,97363.88
2022-11-13T20:06:28.591Z,97364.72
2022-11-13T20:08:55.060Z,97361.16
2022-11-13T20:11:21.569Z,97356.38
2022-11-13T20:13:47.958Z,97342.56
2022-11-13T20:16:15.959Z,97327.63
2022-11-13T20:18:43.533Z,97353.69
2022-11-13T20:21:10.169Z,97356.84
2022-11-13T20:23:37.063Z,97363.44
2022-11-13T20:26:06.586Z,97356.66
2022-11-13T20:28:33.464Z,97353.88
2022-11-13T20:31:12.718Z,97348.22
2022-11-13T20:33:39.082Z,97354.06
2022-11-13T20:36:06.026Z,97362.28
2022-11-13T20:38:32.597Z,97338.41
2022-11-13T20:41:04.454Z,97342.97
2022-11-13T20:43:30.927Z,97350.72
2022-11-13T20:46:09.001Z,97354.88
2022-11-13T20:48:36.225Z,97349.41
2022-11-13T20:51:12.609Z,97351.38
2022-11-13T20:53:39.291Z,97346.97
2022-11-13T20:56:07.563Z,97349.34
2022-11-13T20:58:34.600Z,97345.19
2022-11-13T21:01:13.055Z,97335.50
2022-11-13T21:03:41.606Z,97336.88
2022-11-13T21:06:10.891Z,97354.16
2022-11-13T21:08:37.928Z,97356.84
2022-11-13T21:11:06.189Z,97354.06
2022-11-13T21:13:33.811Z,97355.47
2022-11-13T21:16:05.831Z,97333.47
2022-11-13T21:18:32.388Z,97361.81
2022-11-13T21:21:19.588Z,97351.59
2022-11-13T21:23:47.882Z,97370.19
2022-11-13T21:26:15.390Z,97357.00
2022-11-13T21:28:41.910Z,97341.41
2022-11-13T21:31:14.153Z,97366.84
2022-11-13T21:33:42.335Z,97339.78
2022-11-13T21:36:15.458Z,97363.88
2022-11-13T21:38:44.953Z,97326.63
2022-11-13T21:41:23.033Z,97366.50
2022-11-13T21:43:50.667Z,97375.91
2022-11-13T21:46:18.246Z,97370.72
2022-11-13T21:48:45.472Z,97365.06
2022-11-13T21:51:12.816Z,97353.13
2022-11-13T21:53:39.493Z,97352.03
2022-11-13T21:56:09.051Z,97368.13
2022-11-13T21:58:39.576Z,97385.69
2022-11-13T22:01:07.107Z,97384.47
2022-11-13T22:03:33.621Z,97367.94
2022-11-13T22:06:24.092Z,97387.63
2022-11-13T22:09:02.181Z,97392.31
2022-11-13T22:11:32.245Z,97362.47
2022-11-13T22:13:59.266Z,97399.66
2022-11-13T22:16:27.926Z,97391.69
2022-11-13T22:18:57.853Z,97389.16
2022-11-13T22:21:26.062Z,97396.03
2022-11-13T22:23:52.599Z,97384.56
2022-11-13T22:26:20.272Z,97397.25
2022-11-13T22:28:47.867Z,97392.09
2022-11-13T22:31:26.211Z,97394.75
2022-11-13T22:33:55.152Z,97380.53
2022-11-13T22:36:33.524Z,97396.81
2022-11-13T22:39:00.793Z,97396.28
2022-11-13T22:41:32.296Z,97401.69
2022-11-13T22:44:01.286Z,97365.13
2022-11-13T22:46:30.884Z,97396.16
2022-11-13T22:49:00.120Z,97397.44
2022-11-13T22:51:29.218Z,97382.59
2022-11-13T22:53:59.300Z,97393.47
2022-11-13T22:56:28.267Z,97383.94
2022-11-13T22:58:56.278Z,97394.66
2022-11-13T23:01:25.299Z,97383.56
2022-11-13T23:03:53.498Z,97389.94
2022-11-13T23:06:25.776Z,97366.00
2022-11-13T23:08:53.275Z,97385.22
2022-11-13T23:11:25.301Z,97378.66
2022-11-13T23:13:54.352Z,97381.66
2022-11-13T23:16:22.729Z,97369.31
2022-11-13T23:18:50.855Z,97374.84
2022-11-13T23:21:18.101Z,97375.94
2022-11-13T23:23:44.595Z,97359.47
2022-11-13T23:26:12.676Z,97374.78
2022-11-13T23:28:39.343Z,97352.13
2022-11-13T23:31:06.536Z,97372.56
2022-11-13T23:33:33.665Z,97366.00
2022-11-13T23:36:00.607Z,97371.47
2022-11-13T23:38:27.204Z,97374.47
2022-11-13T23:40:55.162Z,97363.22
2022-11-13T23:43:22.043Z,97360.59
2022-11-13T23:45:48.514Z,97364.16
2022-11-13T23:48:15.575Z,97335.81
2022-11-13T23:50:42.394Z,97325.31
2022-11-13T23:53:09.541Z,97333.28
2022-11-13T23:55:38.598Z,97359.66
2022-11-13T23:58:06.673Z,97338.50
